Time;durP1;ratioP1;P1;durP2;ratioP2;P2;SDS_P1;SDS_P2;PMS_P1;PMS_P2;Temp;Humidity;BMP_temperature;BMP_pressure;BME280_temperature;BME280_humidity;BME280_pressure;Samples;Min_cycle;Max_cycle;Signal;HPM_P1;HPM_P2
2023/01/29 00:00:50;;;;;;;57.42;25.67;;;;;;;;;;5011346;28;20049;-61
2023/01/29 00:03:15;;;;;;;58.53;26.13;;;;;;;;;;5008630;28;20099;-61
2023/01/29 00:05:41;;;;;;;55.67;25.13;;;;;;;;;;5010726;28;20033;-61
2023/01/29 00:08:06;;;;;;;61.83;25.77;;;;;;;;;;5006854;28;20030;-60
2023/01/29 00:10:32;;;;;;;56.42;24.77;;;;;;;;;;5008708;28;20030;-60
2023/01/29 00:12:58;;;;;;;57.58;25.75;;;;;;;;;;5009022;28;20100;-60
2023/01/29 00:15:23;;;;;;;54.90;25.77;;;;;;;;;;5009434;28;20034;-61
2023/01/29 00:17:48;;;;;;;59.88;25.80;;;;;;;;;;5008402;28;20046;-60
2023/01/29 00:20:14;;;;;;;62.83;27.77;;;;;;;;;;5008214;28;20045;-61
2023/01/29 00:22:39;;;;;;;66.03;28.63;;;;;;;;;;5007251;28;20059;-60
2023/01/29 00:25:05;;;;;;;74.07;30.65;;;;;;;;;;5007019;28;20398;-60
2023/01/29 00:27:31;;;;;;;63.88;27.42;;;;;;;;;;5009966;28;20045;-62
2023/01/29 00:30:29;;;;;;;62.53;27.77;;;;;;;;;;5009671;28;20335;-61
2023/01/29 00:32:47;;;;;;;67.70;28.90;;;;;;;;;;5004662;28;20045;-60
2023/01/29 00:35:13;;;;;;;68.60;28.20;;;;;;;;;;5009545;28;20449;-61
2023/01/29 00:37:38;;;;;;;59.55;26.67;;;;;;;;;;5008098;28;20072;-62
2023/01/29 00:40:04;;;;;;;58.58;25.48;;;;;;;;;;5002578;28;20438;-61
2023/01/29 00:45:14;;;;;;;61.38;26.20;;;;;;;;;;5010410;28;20100;-61
2023/01/29 00:47:39;;;;;;;65.75;28.27;;;;;;;;;;5010532;28;20438;-61
2023/01/29 00:50:08;;;;;;;67.28;27.08;;;;;;;;;;5003458;28;20068;-62
2023/01/29 00:52:35;;;;;;;59.47;24.85;;;;;;;;;;4996291;28;20034;-62
2023/01/29 00:55:01;;;;;;;59.45;26.15;;;;;;;;;;5008273;28;20136;-61
2023/01/29 00:57:28;;;;;;;61.60;24.73;;;;;;;;;;5008618;28;20029;-61
2023/01/29 00:59:54;;;;;;;61.00;24.95;;;;;;;;;;5006544;28;20069;-62
2023/01/29 01:05:06;;;;;;;64.82;26.38;;;;;;;;;;5008634;28;20045;-61
2023/01/29 01:07:32;;;;;;;68.97;26.30;;;;;;;;;;5009025;28;20022;-61
2023/01/29 01:12:41;;;;;;;78.68;31.60;;;;;;;;;;5014774;28;20414;-60
2023/01/29 01:15:07;;;;;;;69.28;30.27;;;;;;;;;;5016162;28;20029;-60
2023/01/29 01:17:33;;;;;;;65.93;26.45;;;;;;;;;;5012246;28;20030;-60
2023/01/29 01:19:59;;;;;;;60.85;26.02;;;;;;;;;;5014937;28;20096;-61
2023/01/29 01:22:24;;;;;;;61.85;26.65;;;;;;;;;;5017174;28;20033;-61
2023/01/29 01:24:50;;;;;;;58.63;25.27;;;;;;;;;;5014494;28;20042;-61
2023/01/29 01:27:15;;;;;;;60.45;24.63;;;;;;;;;;5015321;28;20458;-61
2023/01/29 01:29:41;;;;;;;61.97;25.20;;;;;;;;;;5017992;28;20026;-61
2023/01/29 01:32:06;;;;;;;61.25;24.17;;;;;;;;;;5013611;28;20038;-61
2023/01/29 01:34:31;;;;;;;54.72;23.23;;;;;;;;;;5012576;28;20025;-62
2023/01/29 01:36:57;;;;;;;58.08;24.10;;;;;;;;;;5013431;28;20996;-61
2023/01/29 01:39:23;;;;;;;61.05;24.77;;;;;;;;;;5007727;28;20547;-61
2023/01/29 01:41:50;;;;;;;56.47;24.55;;;;;;;;;;5013457;28;20455;-61
2023/01/29 01:44:51;;;;;;;58.22;23.77;;;;;;;;;;5016220;28;20033;-61
2023/01/29 01:47:22;;;;;;;61.72;24.63;;;;;;;;;;5013935;28;20495;-61
2023/01/29 01:49:47;;;;;;;59.50;24.52;;;;;;;;;;5013017;28;20046;-61
2023/01/29 01:52:15;;;;;;;57.67;23.58;;;;;;;;;;5015849;28;20042;-62
2023/01/29 01:54:41;;;;;;;59.38;24.15;;;;;;;;;;5015154;28;20042;-61
2023/01/29 01:57:14;;;;;;;62.60;25.25;;;;;;;;;;5014713;28;20030;-61
2023/01/29 01:59:45;;;;;;;64.40;24.95;;;;;;;;;;5010672;28;20046;-61
2023/01/29 02:10:36;;;;;;;58.30;24.15;;;;;;;;;;5013735;28;20080;-62
2023/01/29 02:13:03;;;;;;;57.22;23.13;;;;;;;;;;5008047;28;20262;-61
2023/01/29 02:15:28;;;;;;;55.83;23.10;;;;;;;;;;5007742;28;20029;-63
2023/01/29 02:17:53;;;;;;;55.38;22.63;;;;;;;;;;5015045;28;20040;-61
2023/01/29 02:20:28;;;;;;;52.63;22.77;;;;;;;;;;5009584;28;20034;-61
2023/01/29 02:22:54;;;;;;;54.40;22.58;;;;;;;;;;5006548;28;20112;-61
2023/01/29 02:25:46;;;;;;;53.63;23.05;;;;;;;;;;5012352;28;20112;-61
2023/01/29 02:28:20;;;;;;;53.33;22.10;;;;;;;;;;5010946;28;20038;-60
2023/01/29 02:31:10;;;;;;;54.97;22.08;;;;;;;;;;5010228;28;20441;-60
2023/01/29 02:33:59;;;;;;;59.42;22.65;;;;;;;;;;5004412;28;20038;-60
2023/01/29 02:37:06;;;;;;;54.20;22.25;;;;;;;;;;5006374;28;20462;-61
2023/01/29 02:39:31;;;;;;;44.65;20.63;;;;;;;;;;5005791;28;20103;-61
2023/01/29 02:42:15;;;;;;;51.33;21.05;;;;;;;;;;5008621;28;20479;-60
2023/01/29 02:44:55;;;;;;;49.13;20.63;;;;;;;;;;5013281;28;20109;-60
2023/01/29 02:47:28;;;;;;;51.42;21.35;;;;;;;;;;5012867;28;20034;-60
2023/01/29 02:50:08;;;;;;;48.55;21.08;;;;;;;;;;5013570;28;20455;-61
2023/01/29 02:52:55;;;;;;;51.10;21.55;;;;;;;;;;5012749;28;20113;-60
2023/01/29 02:55:26;;;;;;;50.30;20.38;;;;;;;;;;5011406;28;20041;-60
2023/01/29 02:57:58;;;;;;;57.25;21.63;;;;;;;;;;5008433;28;20040;-60
2023/01/29 03:00:32;;;;;;;48.95;21.05;;;;;;;;;;5011446;28;20471;-61
2023/01/29 03:03:05;;;;;;;57.63;21.67;;;;;;;;;;5008098;28;20096;-61
2023/01/29 03:05:43;;;;;;;48.13;19.60;;;;;;;;;;5012684;28;20040;-60
2023/01/29 03:08:11;;;;;;;52.08;20.85;;;;;;;;;;5007039;28;20038;-61
2023/01/29 03:10:42;;;;;;;47.63;19.75;;;;;;;;;;5012165;28;20478;-61
2023/01/29 03:13:13;;;;;;;51.20;20.38;;;;;;;;;;5007469;28;20025;-61
2023/01/29 03:15:45;;;;;;;55.85;21.10;;;;;;;;;;5009392;28;20554;-60
2023/01/29 03:18:16;;;;;;;47.20;19.88;;;;;;;;;;5009314;28;20038;-61
2023/01/29 03:20:48;;;;;;;51.28;21.75;;;;;;;;;;5005920;28;20528;-60
2023/01/29 03:23:22;;;;;;;51.75;21.58;;;;;;;;;;4998111;28;20065;-61
2023/01/29 03:34:22;;;;;;;54.88;20.83;;;;;;;;;;5009391;28;20611;-60
2023/01/29 03:36:55;;;;;;;59.53;22.15;;;;;;;;;;5007673;28;20486;-60
2023/01/29 03:39:21;;;;;;;54.65;21.30;;;;;;;;;;5003349;28;20034;-60
2023/01/29 03:41:53;;;;;;;59.28;21.58;;;;;;;;;;5010933;28;20038;-61
2023/01/29 03:44:51;;;;;;;58.95;20.90;;;;;;;;;;5004096;28;20038;-61
2023/01/29 03:47:40;;;;;;;56.97;20.65;;;;;;;;;;4999335;28;20042;-62
2023/01/29 03:50:12;;;;;;;52.20;21.33;;;;;;;;;;5003778;28;20033;-61
2023/01/29 03:53:07;;;;;;;55.28;21.77;;;;;;;;;;5009260;28;20459;-62
2023/01/29 03:55:36;;;;;;;52.97;20.10;;;;;;;;;;5001503;28;20104;-60
2023/01/29 03:58:15;;;;;;;54.50;21.02;;;;;;;;;;5011959;28;20045;-61
2023/01/29 04:00:51;;;;;;;51.75;20.48;;;;;;;;;;5012664;28;20045;-61
2023/01/29 04:03:22;;;;;;;50.53;20.27;;;;;;;;;;5011328;28;20116;-61
2023/01/29 04:05:57;;;;;;;51.00;20.38;;;;;;;;;;5005768;28;20046;-62
2023/01/29 04:08:29;;;;;;;51.55;20.08;;;;;;;;;;5004385;28;20037;-61
2023/01/29 04:11:00;;;;;;;50.33;20.25;;;;;;;;;;4997967;28;20037;-61
2023/01/29 04:13:26;;;;;;;46.67;19.80;;;;;;;;;;4997758;28;20037;-60
2023/01/29 04:15:58;;;;;;;53.65;21.25;;;;;;;;;;5005438;28;20034;-61
2023/01/29 04:18:24;;;;;;;50.85;21.58;;;;;;;;;;5008497;28;20056;-60
2023/01/29 04:20:50;;;;;;;50.38;21.25;;;;;;;;;;5008572;28;20471;-62
2023/01/29 04:23:24;;;;;;;50.20;19.85;;;;;;;;;;5011701;28;20026;-61
2023/01/29 04:26:13;;;;;;;50.80;20.45;;;;;;;;;;5001505;28;20029;-61
2023/01/29 04:28:52;;;;;;;47.85;20.23;;;;;;;;;;5003783;28;20052;-61
2023/01/29 04:31:24;;;;;;;50.63;20.02;;;;;;;;;;4995567;28;20463;-61
2023/01/29 04:34:20;;;;;;;53.97;21.17;;;;;;;;;;5005563;28;20022;-60
2023/01/29 04:37:22;;;;;;;45.63;20.15;;;;;;;;;;5002846;28;20050;-60
2023/01/29 04:39:47;;;;;;;52.58;20.88;;;;;;;;;;5006304;28;20048;-60
2023/01/29 04:42:47;;;;;;;54.50;20.02;;;;;;;;;;5007035;28;20117;-60
2023/01/29 04:45:34;;;;;;;48.87;20.10;;;;;;;;;;5003184;28;20034;-60
2023/01/29 04:48:16;;;;;;;44.45;19.40;;;;;;;;;;5005218;28;20026;-61
2023/01/29 04:51:19;;;;;;;49.58;20.10;;;;;;;;;;5002171;28;20053;-60
2023/01/29 04:53:52;;;;;;;45.67;17.65;;;;;;;;;;5005878;28;20030;-60
2023/01/29 04:57:01;;;;;;;46.60;19.55;;;;;;;;;;5005932;28;20068;-60
2023/01/29 04:59:31;;;;;;;47.42;17.83;;;;;;;;;;5001421;28;20042;-60
2023/01/29 05:02:00;;;;;;;51.92;19.65;;;;;;;;;;5002456;28;20497;-61
2023/01/29 05:04:28;;;;;;;43.40;17.45;;;;;;;;;;5004244;28;20100;-60
2023/01/29 05:06:54;;;;;;;42.85;17.77;;;;;;;;;;5007395;28;20041;-62
2023/01/29 05:09:21;;;;;;;44.95;17.85;;;;;;;;;;5006660;28;20038;-60
2023/01/29 05:11:47;;;;;;;27.95;12.27;;;;;;;;;;5004503;28;20030;-61
2023/01/29 05:14:17;;;;;;;42.92;18.83;;;;;;;;;;5000411;28;20121;-60
2023/01/29 05:16:46;;;;;;;45.88;19.52;;;;;;;;;;5008774;28;20053;-60
2023/01/29 05:19:13;;;;;;;48.00;19.30;;;;;;;;;;5005899;28;20148;-62
2023/01/29 05:21:43;;;;;;;64.18;25.27;;;;;;;;;;5006399;28;20549;-61
2023/01/29 05:24:09;;;;;;;46.30;18.73;;;;;;;;;;5009420;28;20064;-61
2023/01/29 05:29:20;;;;;;;47.33;18.35;;;;;;;;;;5008074;28;20103;-61
2023/01/29 05:31:45;;;;;;;50.30;19.05;;;;;;;;;;5005927;28;20550;-62
2023/01/29 05:34:11;;;;;;;62.92;25.55;;;;;;;;;;5007411;28;20116;-61
2023/01/29 05:36:36;;;;;;;41.47;18.58;;;;;;;;;;5008060;28;20438;-62
2023/01/29 05:39:02;;;;;;;51.97;21.90;;;;;;;;;;5007040;28;20117;-61
2023/01/29 05:41:27;;;;;;;45.95;17.83;;;;;;;;;;5008773;28;20786;-61
2023/01/29 05:43:53;;;;;;;41.70;16.40;;;;;;;;;;5009047;28;20030;-61
2023/01/29 05:46:18;;;;;;;37.05;15.18;;;;;;;;;;5007891;28;20394;-61
2023/01/29 05:48:43;;;;;;;43.25;18.02;;;;;;;;;;5008821;28;20072;-61
2023/01/29 05:51:09;;;;;;;45.88;18.70;;;;;;;;;;5003691;28;20491;-61
2023/01/29 05:53:34;;;;;;;44.70;16.73;;;;;;;;;;5005982;28;20362;-61
2023/01/29 05:56:01;;;;;;;46.20;17.48;;;;;;;;;;5009887;28;20026;-61
2023/01/29 05:58:27;;;;;;;40.50;17.55;;;;;;;;;;5014972;28;20026;-61
2023/01/29 06:00:52;;;;;;;42.25;17.20;;;;;;;;;;5011010;28;20025;-61
2023/01/29 06:03:17;;;;;;;37.25;15.73;;;;;;;;;;5014243;28;20875;-61
2023/01/29 06:05:43;;;;;;;39.33;16.58;;;;;;;;;;5015024;28;20037;-61
2023/01/29 06:08:08;;;;;;;48.80;20.25;;;;;;;;;;5014099;28;20612;-61
2023/01/29 06:10:34;;;;;;;40.00;16.25;;;;;;;;;;5001842;28;20157;-63
2023/01/29 06:12:59;;;;;;;39.72;15.60;;;;;;;;;;4997654;28;20040;-62
2023/01/29 06:15:25;;;;;;;42.53;18.42;;;;;;;;;;5013424;28;20038;-61
2023/01/29 06:17:53;;;;;;;38.60;15.95;;;;;;;;;;5013864;28;20041;-61
2023/01/29 06:20:19;;;;;;;42.35;17.98;;;;;;;;;;5014156;28;20148;-62
2023/01/29 06:22:44;;;;;;;41.97;16.70;;;;;;;;;;5015255;28;20109;-61
2023/01/29 06:25:09;;;;;;;40.13;17.52;;;;;;;;;;5013985;28;20360;-61
2023/01/29 06:27:35;;;;;;;41.00;16.98;;;;;;;;;;5014664;28;20029;-61
2023/01/29 06:30:01;;;;;;;48.72;20.45;;;;;;;;;;5012662;28;20030;-61
2023/01/29 06:32:26;;;;;;;51.28;21.20;;;;;;;;;;5014498;28;20168;-61
2023/01/29 06:34:52;;;;;;;59.25;23.02;;;;;;;;;;5013192;28;20026;-61
2023/01/29 06:37:17;;;;;;;44.33;18.30;;;;;;;;;;5013108;28;20695;-61
2023/01/29 06:39:43;;;;;;;42.58;18.10;;;;;;;;;;5014186;28;20034;-61
2023/01/29 06:42:09;;;;;;;38.95;16.85;;;;;;;;;;5013226;28;20105;-62
2023/01/29 06:44:35;;;;;;;39.33;16.70;;;;;;;;;;5012524;28;20037;-62
2023/01/29 06:47:00;;;;;;;45.47;18.27;;;;;;;;;;5006468;28;20485;-61
2023/01/29 06:49:26;;;;;;;37.88;16.08;;;;;;;;;;5002459;28;20088;-62
2023/01/29 06:51:51;;;;;;;45.47;17.95;;;;;;;;;;5012598;28;20109;-60
2023/01/29 06:54:16;;;;;;;43.20;18.02;;;;;;;;;;5012108;28;20891;-61
2023/01/29 06:56:42;;;;;;;44.85;19.38;;;;;;;;;;5014015;28;20037;-61
2023/01/29 06:59:07;;;;;;;45.85;18.17;;;;;;;;;;5013079;28;20041;-62
2023/01/29 07:01:33;;;;;;;43.15;17.52;;;;;;;;;;5013867;28;20752;-62
2023/01/29 07:03:58;;;;;;;45.80;17.58;;;;;;;;;;5013923;28;20026;-62
2023/01/29 07:06:28;;;;;;;44.38;17.13;;;;;;;;;;5016360;28;20038;-60
2023/01/29 07:08:53;;;;;;;43.22;17.77;;;;;;;;;;5020422;28;20036;-60
2023/01/29 07:11:19;;;;;;;46.97;18.13;;;;;;;;;;5012793;28;20037;-61
2023/01/29 07:13:44;;;;;;;42.28;16.90;;;;;;;;;;5014473;28;20387;-60
2023/01/29 07:16:09;;;;;;;42.08;16.83;;;;;;;;;;5012599;28;20061;-62
2023/01/29 07:18:35;;;;;;;43.53;18.45;;;;;;;;;;5013669;28;20034;-60
2023/01/29 07:21:06;;;;;;;42.78;18.15;;;;;;;;;;5013203;28;20196;-61
2023/01/29 07:23:32;;;;;;;37.13;15.70;;;;;;;;;;5013607;28;20022;-61
2023/01/29 07:26:01;;;;;;;39.72;17.15;;;;;;;;;;5027425;28;20092;-61
2023/01/29 07:28:27;;;;;;;39.55;17.63;;;;;;;;;;5013253;28;20037;-61
2023/01/29 07:30:59;;;;;;;39.03;17.13;;;;;;;;;;5013488;28;20030;-61
2023/01/29 07:33:25;;;;;;;48.28;17.65;;;;;;;;;;5011832;28;20033;-60
2023/01/29 07:35:51;;;;;;;45.50;17.77;;;;;;;;;;5013225;28;20037;-67
2023/01/29 07:38:16;;;;;;;45.40;18.23;;;;;;;;;;5012618;28;20034;-61
2023/01/29 07:40:42;;;;;;;42.17;18.55;;;;;;;;;;5013594;28;20112;-62
2023/01/29 07:43:09;;;;;;;39.55;18.02;;;;;;;;;;5010070;28;20391;-62
2023/01/29 07:45:36;;;;;;;43.92;18.30;;;;;;;;;;5013584;28;20034;-61
2023/01/29 07:48:03;;;;;;;45.03;18.17;;;;;;;;;;5013039;28;20033;-63
2023/01/29 07:50:30;;;;;;;46.30;18.90;;;;;;;;;;5008971;28;20097;-61
2023/01/29 07:52:55;;;;;;;43.25;18.67;;;;;;;;;;5012780;28;20099;-63
2023/01/29 07:55:21;;;;;;;45.90;19.45;;;;;;;;;;5011840;28;20041;-63
2023/01/29 07:57:46;;;;;;;46.72;18.80;;;;;;;;;;5012971;28;20030;-66
2023/01/29 08:00:13;;;;;;;45.70;19.27;;;;;;;;;;5011521;28;20030;-62
2023/01/29 08:02:39;;;;;;;45.15;18.58;;;;;;;;;;5011417;28;20029;-63
2023/01/29 08:05:05;;;;;;;44.38;18.80;;;;;;;;;;5012235;28;20467;-63
2023/01/29 08:07:31;;;;;;;43.67;18.58;;;;;;;;;;5011457;28;20041;-62
2023/01/29 08:09:56;;;;;;;48.42;20.45;;;;;;;;;;5012491;28;20034;-62
2023/01/29 08:12:21;;;;;;;46.13;19.75;;;;;;;;;;5012035;28;20083;-63
2023/01/29 08:14:47;;;;;;;46.92;19.02;;;;;;;;;;5032044;28;20025;-62
2023/01/29 08:17:13;;;;;;;44.58;19.23;;;;;;;;;;5022784;28;20479;-63
2023/01/29 08:19:38;;;;;;;42.00;18.27;;;;;;;;;;5012733;28;20037;-61
2023/01/29 08:22:05;;;;;;;44.25;19.15;;;;;;;;;;5011791;28;20459;-63
2023/01/29 08:24:30;;;;;;;47.38;19.92;;;;;;;;;;5019916;28;20033;-63
2023/01/29 08:26:56;;;;;;;45.40;18.63;;;;;;;;;;5027616;28;20030;-64
2023/01/29 08:29:21;;;;;;;45.42;18.73;;;;;;;;;;5009967;28;20030;-63
2023/01/29 08:31:47;;;;;;;45.75;18.17;;;;;;;;;;5012403;28;20034;-62
2023/01/29 08:34:12;;;;;;;43.08;18.92;;;;;;;;;;5003821;28;20041;-61
2023/01/29 08:36:38;;;;;;;45.38;18.65;;;;;;;;;;5012473;28;20053;-62
2023/01/29 08:39:03;;;;;;;45.10;19.45;;;;;;;;;;5017983;28;20398;-62
2023/01/29 08:41:28;;;;;;;45.38;19.67;;;;;;;;;;5009174;28;20076;-63
2023/01/29 08:43:54;;;;;;;40.38;17.20;;;;;;;;;;5011952;28;20061;-62
2023/01/29 08:46:19;;;;;;;49.40;20.98;;;;;;;;;;5011105;28;20354;-62
2023/01/29 08:48:45;;;;;;;45.47;19.58;;;;;;;;;;5012150;28;20025;-62
2023/01/29 08:51:10;;;;;;;37.22;16.55;;;;;;;;;;5010744;28;20485;-62
2023/01/29 08:53:35;;;;;;;42.95;17.65;;;;;;;;;;5012032;28;20041;-62
2023/01/29 08:56:01;;;;;;;42.70;17.70;;;;;;;;;;5011921;28;20518;-62
2023/01/29 08:58:27;;;;;;;45.63;19.13;;;;;;;;;;5008762;28;20600;-62
2023/01/29 09:00:52;;;;;;;38.53;16.45;;;;;;;;;;5007999;28;20034;-62
2023/01/29 09:03:18;;;;;;;51.40;19.58;;;;;;;;;;5010190;28;20057;-62
2023/01/29 09:05:45;;;;;;;41.95;17.25;;;;;;;;;;5010904;28;20116;-63
2023/01/29 09:08:11;;;;;;;45.58;19.17;;;;;;;;;;5008783;28;20041;-63
2023/01/29 09:10:36;;;;;;;47.63;19.90;;;;;;;;;;5011655;28;20030;-63
2023/01/29 09:13:02;;;;;;;47.92;19.65;;;;;;;;;;5011598;28;20026;-63
2023/01/29 09:15:28;;;;;;;41.67;18.20;;;;;;;;;;4993998;28;20030;-63
2023/01/29 09:17:53;;;;;;;40.58;17.70;;;;;;;;;;4992285;28;20117;-63
2023/01/29 09:20:19;;;;;;;45.40;17.75;;;;;;;;;;5004425;28;20128;-63
2023/01/29 09:22:45;;;;;;;38.13;16.17;;;;;;;;;;5011767;28;20045;-63
2023/01/29 09:25:11;;;;;;;35.88;15.63;;;;;;;;;;5010722;28;20077;-62
2023/01/29 09:27:36;;;;;;;47.00;20.00;;;;;;;;;;5007898;28;20026;-62
2023/01/29 09:30:03;;;;;;;41.22;16.20;;;;;;;;;;5015531;28;20079;-62
2023/01/29 09:32:29;;;;;;;43.55;18.85;;;;;;;;;;5014779;28;20101;-62
2023/01/29 09:34:55;;;;;;;48.90;19.55;;;;;;;;;;5014315;28;20126;-63
2023/01/29 09:37:22;;;;;;;42.28;18.08;;;;;;;;;;5014413;28;20422;-62
2023/01/29 09:39:48;;;;;;;38.85;16.48;;;;;;;;;;5015427;28;20451;-62
2023/01/29 09:42:27;;;;;;;38.75;16.88;;;;;;;;;;5014600;28;20036;-62
2023/01/29 09:45:09;;;;;;;31.90;14.00;;;;;;;;;;5009537;28;20022;-62
2023/01/29 09:47:35;;;;;;;41.50;16.65;;;;;;;;;;4995530;28;20117;-62
2023/01/29 09:50:27;;;;;;;47.35;18.40;;;;;;;;;;5003779;28;20105;-62
2023/01/29 09:53:03;;;;;;;34.30;13.30;;;;;;;;;;5013133;28;20137;-62
2023/01/29 09:55:34;;;;;;;38.80;16.85;;;;;;;;;;5014432;28;20124;-62
2023/01/29 09:58:20;;;;;;;44.33;18.63;;;;;;;;;;5015333;28;20038;-63
2023/01/29 10:01:06;;;;;;;43.50;17.30;;;;;;;;;;5011756;28;20471;-63
2023/01/29 10:04:05;;;;;;;29.52;13.40;;;;;;;;;;5014117;28;20041;-63
2023/01/29 10:06:52;;;;;;;39.15;17.33;;;;;;;;;;5014053;28;20641;-63
2023/01/29 10:09:48;;;;;;;34.80;15.35;;;;;;;;;;5013131;28;20463;-62
2023/01/29 10:12:39;;;;;;;27.42;12.32;;;;;;;;;;5013831;28;20387;-62
2023/01/29 10:15:33;;;;;;;41.78;16.45;;;;;;;;;;5014285;28;20045;-63
2023/01/29 10:18:29;;;;;;;35.75;14.95;;;;;;;;;;5012817;28;20038;-63
2023/01/29 10:21:20;;;;;;;42.80;16.80;;;;;;;;;;5015190;28;20057;-63
2023/01/29 10:23:53;;;;;;;31.70;14.40;;;;;;;;;;4995334;28;20030;-62
2023/01/29 10:26:23;;;;;;;31.02;12.85;;;;;;;;;;4994358;28;20041;-62
2023/01/29 10:28:51;;;;;;;39.28;15.85;;;;;;;;;;5014467;28;20026;-62
2023/01/29 10:31:38;;;;;;;34.13;14.55;;;;;;;;;;5013709;28;20037;-62
2023/01/29 10:34:16;;;;;;;41.90;17.45;;;;;;;;;;5010007;28;20033;-63
2023/01/29 10:36:46;;;;;;;31.85;13.10;;;;;;;;;;5014234;28;20386;-62
2023/01/29 10:39:23;;;;;;;33.37;13.93;;;;;;;;;;5014485;28;20554;-62
2023/01/29 10:41:54;;;;;;;35.17;16.10;;;;;;;;;;5030592;28;20034;-62
2023/01/29 10:45:04;;;;;;;19.10;9.98;;;;;;;;;;5033344;28;20036;-62
2023/01/29 10:48:03;;;;;;;42.67;17.83;;;;;;;;;;5016501;28;20041;-63
2023/01/29 10:50:58;;;;;;;35.40;15.65;;;;;;;;;;5013703;28;20034;-62
2023/01/29 10:54:02;;;;;;;36.63;16.17;;;;;;;;;;5013425;28;20080;-62
2023/01/29 10:56:40;;;;;;;35.50;15.18;;;;;;;;;;5013339;28;20033;-63
2023/01/29 10:59:32;;;;;;;30.63;13.82;;;;;;;;;;5012699;28;20493;-62
2023/01/29 11:01:59;;;;;;;32.63;14.32;;;;;;;;;;5005388;28;20481;-63
2023/01/29 11:04:27;;;;;;;27.50;10.95;;;;;;;;;;5012602;28;20036;-62
2023/01/29 11:06:52;;;;;;;38.17;16.52;;;;;;;;;;5014010;28;20036;-62
2023/01/29 11:09:35;;;;;;;37.67;15.73;;;;;;;;;;5012875;28;20030;-62
2023/01/29 11:12:12;;;;;;;31.58;14.70;;;;;;;;;;5012707;28;20026;-62
2023/01/29 11:14:43;;;;;;;40.15;15.38;;;;;;;;;;5012746;28;20089;-61
2023/01/29 11:17:21;;;;;;;33.83;14.80;;;;;;;;;;5010561;28;20045;-62
2023/01/29 11:19:50;;;;;;;36.95;15.40;;;;;;;;;;4994302;28;20034;-62
2023/01/29 11:22:19;;;;;;;27.42;11.88;;;;;;;;;;5004424;28;20041;-62
2023/01/29 11:24:46;;;;;;;38.10;16.05;;;;;;;;;;5013476;28;20531;-64
2023/01/29 11:27:24;;;;;;;25.33;11.90;;;;;;;;;;5012184;28;20367;-63
2023/01/29 11:29:51;;;;;;;37.47;15.60;;;;;;;;;;5013584;28;20030;-63
2023/01/29 11:32:19;;;;;;;37.40;16.63;;;;;;;;;;5006753;28;20062;-63
2023/01/29 11:35:11;;;;;;;29.95;12.60;;;;;;;;;;5013152;28;20048;-63
2023/01/29 11:37:41;;;;;;;27.98;13.20;;;;;;;;;;5012276;28;20266;-63
2023/01/29 11:40:19;;;;;;;27.87;12.87;;;;;;;;;;5013788;28;20471;-63
2023/01/29 11:42:48;;;;;;;28.58;13.18;;;;;;;;;;5012008;28;20030;-63
2023/01/29 11:45:30;;;;;;;37.17;16.92;;;;;;;;;;5012375;28;20072;-62
2023/01/29 11:47:57;;;;;;;31.55;14.05;;;;;;;;;;5013954;28;20072;-62
2023/01/29 11:50:32;;;;;;;34.47;13.93;;;;;;;;;;5012453;28;20029;-63
2023/01/29 11:53:01;;;;;;;34.65;14.27;;;;;;;;;;5012375;28;20463;-63
2023/01/29 11:55:32;;;;;;;21.90;10.50;;;;;;;;;;5009579;28;20033;-62
2023/01/29 11:58:15;;;;;;;23.27;11.90;;;;;;;;;;5013168;28;20040;-64
2023/01/29 12:00:47;;;;;;;31.90;14.05;;;;;;;;;;5012541;28;20038;-63
2023/01/29 12:03:29;;;;;;;23.70;10.57;;;;;;;;;;5013516;28;20125;-62
2023/01/29 12:06:01;;;;;;;29.50;13.35;;;;;;;;;;5013156;28;20038;-63
2023/01/29 12:08:37;;;;;;;38.53;16.70;;;;;;;;;;5012534;28;20045;-62
2023/01/29 12:11:26;;;;;;;37.70;15.57;;;;;;;;;;5012152;28;20041;-62
2023/01/29 12:13:56;;;;;;;35.40;15.82;;;;;;;;;;4994055;28;20022;-62
2023/01/29 12:16:42;;;;;;;34.13;14.00;;;;;;;;;;4991606;28;20041;-63
2023/01/29 12:19:29;;;;;;;28.52;13.07;;;;;;;;;;4993951;28;20491;-62
2023/01/29 12:22:01;;;;;;;33.35;14.50;;;;;;;;;;4993591;28;20038;-63
2023/01/29 12:24:40;;;;;;;38.40;16.17;;;;;;;;;;4996394;28;20037;-63
2023/01/29 12:27:23;;;;;;;25.92;11.77;;;;;;;;;;5014783;28;20026;-62
2023/01/29 12:30:18;;;;;;;20.23;11.30;;;;;;;;;;5013686;28;20045;-61
2023/01/29 12:32:54;;;;;;;36.63;14.90;;;;;;;;;;5012891;28;20033;-61
2023/01/29 12:35:28;;;;;;;21.10;9.18;;;;;;;;;;5012248;28;20037;-62
2023/01/29 12:38:01;;;;;;;38.63;16.15;;;;;;;;;;5012189;28;20080;-61
2023/01/29 12:40:33;;;;;;;23.77;9.85;;;;;;;;;;5010067;28;20041;-63
2023/01/29 12:43:04;;;;;;;25.33;11.80;;;;;;;;;;5011603;28;20513;-63
2023/01/29 12:45:30;;;;;;;;;;;;;;;;;;5011917;28;20040;-61
2023/01/29 12:48:08;;;;;;;35.22;15.25;;;;;;;;;;5012433;28;19920;-61
2023/01/29 12:50:36;;;;;;;33.75;14.20;;;;;;;;;;5011466;28;20423;-63
2023/01/29 12:53:27;;;;;;;46.13;16.83;;;;;;;;;;5012020;28;20029;-62
2023/01/29 12:56:04;;;;;;;24.90;11.85;;;;;;;;;;5009045;28;20495;-61
2023/01/29 12:58:39;;;;;;;40.67;17.42;;;;;;;;;;5011932;28;20034;-61
2023/01/29 13:01:32;;;;;;;30.63;14.15;;;;;;;;;;5011147;28;20029;-62
2023/01/29 13:03:59;;;;;;;35.67;15.80;;;;;;;;;;5010141;28;20372;-61
2023/01/29 13:06:30;;;;;;;35.70;15.52;;;;;;;;;;5011571;28;20117;-61
2023/01/29 13:09:05;;;;;;;;;;;;;;;;;;5010078;28;20678;-61
2023/01/29 13:11:37;;;;;;;34.38;14.57;;;;;;;;;;5009609;28;19917;-63
2023/01/29 13:14:15;;;;;;;39.35;16.75;;;;;;;;;;5006756;28;20475;-61
2023/01/29 13:16:44;;;;;;;35.55;14.90;;;;;;;;;;5009977;28;20193;-62
2023/01/29 13:19:30;;;;;;;39.72;16.02;;;;;;;;;;5012264;28;20026;-62
2023/01/29 13:21:59;;;;;;;32.35;13.02;;;;;;;;;;5006689;28;20034;-63
2023/01/29 13:24:32;;;;;;;31.05;13.88;;;;;;;;;;4993615;28;20037;-63
2023/01/29 13:26:57;;;;;;;32.28;14.18;;;;;;;;;;5009821;28;20030;-62
2023/01/29 13:29:26;;;;;;;29.95;14.38;;;;;;;;;;5011778;28;20048;-62
2023/01/29 13:31:54;;;;;;;28.30;12.25;;;;;;;;;;5012696;28;20041;-63
2023/01/29 13:34:28;;;;;;;25.65;11.85;;;;;;;;;;5012339;28;20029;-63
2023/01/29 13:36:56;;;;;;;33.20;15.25;;;;;;;;;;5011165;28;20058;-63
2023/01/29 13:39:28;;;;;;;23.95;11.63;;;;;;;;;;5012438;28;20041;-63
2023/01/29 13:41:54;;;;;;;35.97;16.15;;;;;;;;;;5011864;28;20102;-63
2023/01/29 13:44:31;;;;;;;36.45;15.57;;;;;;;;;;5009516;28;20532;-62
2023/01/29 13:47:00;;;;;;;34.00;14.38;;;;;;;;;;5012069;28;20076;-62
2023/01/29 13:49:34;;;;;;;30.00;13.60;;;;;;;;;;5009730;28;20034;-62
2023/01/29 13:52:26;;;;;;;33.67;15.35;;;;;;;;;;5010399;28;20031;-62
2023/01/29 13:55:01;;;;;;;37.92;14.63;;;;;;;;;;5010608;28;20060;-62
2023/01/29 13:57:38;;;;;;;33.38;14.98;;;;;;;;;;5010121;28;20160;-63
2023/01/29 14:00:05;;;;;;;31.02;13.18;;;;;;;;;;5011447;28;20034;-63
2023/01/29 14:02:30;;;;;;;36.05;13.85;;;;;;;;;;5011337;28;20120;-63
2023/01/29 14:05:30;;;;;;;32.65;13.73;;;;;;;;;;5011858;28;20139;-62
2023/01/29 14:07:58;;;;;;;32.90;14.52;;;;;;;;;;5010329;28;20030;-63
2023/01/29 14:10:32;;;;;;;33.70;14.25;;;;;;;;;;5007616;28;20042;-63
2023/01/29 14:13:03;;;;;;;35.70;15.15;;;;;;;;;;5010558;28;20038;-63
2023/01/29 14:15:33;;;;;;;31.50;12.82;;;;;;;;;;5011623;28;20037;-62
2023/01/29 14:18:19;;;;;;;38.17;15.63;;;;;;;;;;5014636;28;20072;-61
2023/01/29 14:20:47;;;;;;;27.83;12.70;;;;;;;;;;5013273;28;20235;-63
2023/01/29 14:23:41;;;;;;;34.25;15.43;;;;;;;;;;5014812;28;20113;-60
2023/01/29 14:26:23;;;;;;;32.88;14.02;;;;;;;;;;5014741;28;20134;-62
2023/01/29 14:29:14;;;;;;;38.35;15.68;;;;;;;;;;5014480;28;20033;-63
2023/01/29 14:31:49;;;;;;;27.38;12.20;;;;;;;;;;5012792;28;20490;-65
2023/01/29 14:34:31;;;;;;;24.63;11.20;;;;;;;;;;5013034;28;20045;-63
2023/01/29 14:37:14;;;;;;;25.50;12.52;;;;;;;;;;5015299;28;20057;-63
2023/01/29 14:39:46;;;;;;;37.70;16.35;;;;;;;;;;5014253;28;20041;-63
2023/01/29 14:42:38;;;;;;;28.70;12.10;;;;;;;;;;5014887;28;20485;-63
2023/01/29 14:45:51;;;;;;;32.40;14.38;;;;;;;;;;5014768;28;20117;-63
2023/01/29 14:48:37;;;;;;;35.13;14.40;;;;;;;;;;4998392;28;20474;-63
2023/01/29 14:51:09;;;;;;;33.65;14.63;;;;;;;;;;4993727;28;20061;-62
2023/01/29 14:53:39;;;;;;;39.35;15.13;;;;;;;;;;5002345;28;20387;-62
2023/01/29 14:56:20;;;;;;;29.23;13.02;;;;;;;;;;5001296;28;20372;-65
2023/01/29 14:59:08;;;;;;;24.73;11.15;;;;;;;;;;4993583;28;20823;-69
2023/01/29 15:01:36;;;;;;;34.58;10.48;;;;;;;;;;4992949;28;20510;-66
2023/01/29 15:04:11;;;;;;;30.38;13.98;;;;;;;;;;4994419;28;20042;-65
2023/01/29 15:06:57;;;;;;;34.17;13.57;;;;;;;;;;5010740;28;20033;-68
2023/01/29 15:09:43;;;;;;;24.50;11.55;;;;;;;;;;5013921;28;20092;-68
2023/01/29 15:12:17;;;;;;;31.67;14.55;;;;;;;;;;5011686;28;20030;-66
2023/01/29 15:15:15;;;;;;;33.67;15.25;;;;;;;;;;4993385;28;20030;-69
2023/01/29 15:17:53;;;;;;;22.27;10.80;;;;;;;;;;5018199;28;20124;-67